sensor_id;sensor_type;location;lat;lon;timestamp;P1;durP1;ratioP1;P2;durP2;ratioP2
26965;SDS011;14522;52.068;4.414;2023-04-01T00:00:56;30.02;;;6.95;;
26965;SDS011;14522;52.068;4.414;2023-04-01T00:03:24;33.83;;;6.32;;
26965;SDS011;14522;52.068;4.414;2023-04-01T00:05:52;35.97;;;6.43;;
26965;SDS011;14522;52.068;4.414;2023-04-01T00:08:18;15.65;;;3.92;;
26965;SDS011;14522;52.068;4.414;2023-04-01T00:10:45;20.40;;;4.20;;
26965;SDS011;14522;52.068;4.414;2023-04-01T00:13:11;13.77;;;2.90;;
26965;SDS011;14522;52.068;4.414;2023-04-01T00:15:38;25.27;;;4.72;;
26965;SDS011;14522;52.068;4.414;2023-04-01T00:18:04;20.20;;;4.47;;
26965;SDS011;14522;52.068;4.414;2023-04-01T00:20:31;15.73;;;3.83;;
26965;SDS011;14522;52.068;4.414;2023-04-01T00:22:57;13.95;;;3.60;;
26965;SDS011;14522;52.068;4.414;2023-04-01T00:25:24;11.77;;;3.20;;
26965;SDS011;14522;52.068;4.414;2023-04-01T00:27:50;21.48;;;4.53;;
26965;SDS011;14522;52.068;4.414;2023-04-01T00:30:17;17.15;;;3.95;;
26965;SDS011;14522;52.068;4.414;2023-04-01T00:32:44;15.55;;;3.53;;
26965;SDS011;14522;52.068;4.414;2023-04-01T00:35:10;14.95;;;2.85;;
26965;SDS011;14522;52.068;4.414;2023-04-01T00:37:38;17.27;;;4.35;;
26965;SDS011;14522;52.068;4.414;2023-04-01T00:40:08;15.25;;;3.75;;
26965;SDS011;14522;52.068;4.414;2023-04-01T00:42:46;10.50;;;2.38;;
26965;SDS011;14522;52.068;4.414;2023-04-01T00:45:30;20.13;;;5.40;;
26965;SDS011;14522;52.068;4.414;2023-04-01T00:47:58;15.60;;;3.80;;
26965;SDS011;14522;52.068;4.414;2023-04-01T00:50:26;22.00;;;5.45;;
26965;SDS011;14522;52.068;4.414;2023-04-01T00:52:52;19.55;;;4.82;;
26965;SDS011;14522;52.068;4.414;2023-04-01T00:55:19;20.33;;;4.82;;
26965;SDS011;14522;52.068;4.414;2023-04-01T00:57:46;22.08;;;4.85;;
26965;SDS011;14522;52.068;4.414;2023-04-01T01:00:14;26.80;;;6.47;;
26965;SDS011;14522;52.068;4.414;2023-04-01T01:02:42;20.55;;;5.53;;
26965;SDS011;14522;52.068;4.414;2023-04-01T01:05:14;13.52;;;3.08;;
26965;SDS011;14522;52.068;4.414;2023-04-01T01:10:16;15.82;;;3.72;;
26965;SDS011;14522;52.068;4.414;2023-04-01T01:17:44;15.65;;;3.33;;
26965;SDS011;14522;52.068;4.414;2023-04-01T01:23:15;18.30;;;4.25;;
26965;SDS011;14522;52.068;4.414;2023-04-01T01:30:47;17.65;;;3.80;;
26965;SDS011;14522;52.068;4.414;2023-04-01T01:33:39;9.82;;;2.15;;
26965;SDS011;14522;52.068;4.414;2023-04-01T01:36:03;12.02;;;3.47;;
26965;SDS011;14522;52.068;4.414;2023-04-01T01:38:31;11.60;;;2.83;;
26965;SDS011;14522;52.068;4.414;2023-04-01T01:40:59;14.07;;;3.63;;
26965;SDS011;14522;52.068;4.414;2023-04-01T01:43:29;14.65;;;3.40;;
26965;SDS011;14522;52.068;4.414;2023-04-01T01:45:57;15.45;;;2.83;;
26965;SDS011;14522;52.068;4.414;2023-04-01T01:48:24;13.43;;;2.65;;
26965;SDS011;14522;52.068;4.414;2023-04-01T01:50:52;15.13;;;3.25;;
26965;SDS011;14522;52.068;4.414;2023-04-01T01:53:19;16.02;;;3.33;;
26965;SDS011;14522;52.068;4.414;2023-04-01T01:55:46;12.88;;;3.40;;
26965;SDS011;14522;52.068;4.414;2023-04-01T01:58:20;11.10;;;2.95;;
26965;SDS011;14522;52.068;4.414;2023-04-01T02:01:07;11.53;;;3.00;;
26965;SDS011;14522;52.068;4.414;2023-04-01T02:03:35;12.57;;;2.83;;
26965;SDS011;14522;52.068;4.414;2023-04-01T02:06:04;12.52;;;2.90;;
26965;SDS011;14522;52.068;4.414;2023-04-01T02:08:35;14.45;;;2.63;;
26965;SDS011;14522;52.068;4.414;2023-04-01T02:11:03;11.13;;;2.58;;
26965;SDS011;14522;52.068;4.414;2023-04-01T02:13:33;9.93;;;2.20;;
26965;SDS011;14522;52.068;4.414;2023-04-01T02:16:03;8.88;;;2.15;;
26965;SDS011;14522;52.068;4.414;2023-04-01T02:18:34;8.05;;;2.47;;
26965;SDS011;14522;52.068;4.414;2023-04-01T02:21:01;10.75;;;2.83;;
26965;SDS011;14522;52.068;4.414;2023-04-01T02:23:28;8.18;;;1.80;;
26965;SDS011;14522;52.068;4.414;2023-04-01T02:25:55;12.38;;;3.65;;
26965;SDS011;14522;52.068;4.414;2023-04-01T02:28:22;10.98;;;3.60;;
26965;SDS011;14522;52.068;4.414;2023-04-01T02:30:49;9.63;;;3.25;;
26965;SDS011;14522;52.068;4.414;2023-04-01T02:33:16;7.35;;;3.45;;
26965;SDS011;14522;52.068;4.414;2023-04-01T02:35:43;10.55;;;3.28;;
26965;SDS011;14522;52.068;4.414;2023-04-01T02:38:09;10.95;;;4.05;;
26965;SDS011;14522;52.068;4.414;2023-04-01T02:40:46;9.73;;;3.35;;
26965;SDS011;14522;52.068;4.414;2023-04-01T02:43:13;9.07;;;3.72;;
26965;SDS011;14522;52.068;4.414;2023-04-01T02:45:40;7.63;;;3.00;;
26965;SDS011;14522;52.068;4.414;2023-04-01T02:48:06;11.90;;;4.47;;
26965;SDS011;14522;52.068;4.414;2023-04-01T02:50:33;8.38;;;4.22;;
26965;SDS011;14522;52.068;4.414;2023-04-01T02:53:00;11.80;;;5.05;;
26965;SDS011;14522;52.068;4.414;2023-04-01T02:55:26;11.77;;;5.20;;
26965;SDS011;14522;52.068;4.414;2023-04-01T02:57:52;9.00;;;3.90;;
26965;SDS011;14522;52.068;4.414;2023-04-01T03:00:19;12.18;;;6.22;;
26965;SDS011;14522;52.068;4.414;2023-04-01T03:02:45;8.68;;;4.35;;
26965;SDS011;14522;52.068;4.414;2023-04-01T03:05:12;10.80;;;5.35;;
26965;SDS011;14522;52.068;4.414;2023-04-01T03:07:38;12.85;;;6.13;;
26965;SDS011;14522;52.068;4.414;2023-04-01T03:10:05;12.20;;;5.85;;
26965;SDS011;14522;52.068;4.414;2023-04-01T03:12:32;15.45;;;6.18;;
26965;SDS011;14522;52.068;4.414;2023-04-01T03:14:58;9.13;;;2.83;;
26965;SDS011;14522;52.068;4.414;2023-04-01T03:17:37;10.82;;;4.63;;
26965;SDS011;14522;52.068;4.414;2023-04-01T03:20:04;11.75;;;5.72;;
26965;SDS011;14522;52.068;4.414;2023-04-01T03:22:31;15.27;;;6.85;;
26965;SDS011;14522;52.068;4.414;2023-04-01T03:24:57;11.55;;;5.75;;
26965;SDS011;14522;52.068;4.414;2023-04-01T03:27:23;12.95;;;5.22;;
26965;SDS011;14522;52.068;4.414;2023-04-01T03:29:50;9.52;;;4.28;;
26965;SDS011;14522;52.068;4.414;2023-04-01T03:32:16;12.52;;;5.63;;
26965;SDS011;14522;52.068;4.414;2023-04-01T03:34:42;14.70;;;6.85;;
26965;SDS011;14522;52.068;4.414;2023-04-01T03:37:09;12.60;;;5.68;;
26965;SDS011;14522;52.068;4.414;2023-04-01T03:39:35;14.50;;;7.60;;
26965;SDS011;14522;52.068;4.414;2023-04-01T03:42:02;6.65;;;3.92;;
26965;SDS011;14522;52.068;4.414;2023-04-01T03:44:31;13.65;;;5.88;;
26965;SDS011;14522;52.068;4.414;2023-04-01T03:46:58;8.95;;;4.38;;
26965;SDS011;14522;52.068;4.414;2023-04-01T03:49:25;7.97;;;3.95;;
26965;SDS011;14522;52.068;4.414;2023-04-01T03:51:51;14.93;;;7.70;;
26965;SDS011;14522;52.068;4.414;2023-04-01T03:54:17;11.68;;;7.00;;
26965;SDS011;14522;52.068;4.414;2023-04-01T03:56:46;13.02;;;5.97;;
26965;SDS011;14522;52.068;4.414;2023-04-01T03:59:12;9.52;;;5.63;;
26965;SDS011;14522;52.068;4.414;2023-04-01T04:01:39;10.30;;;6.13;;
26965;SDS011;14522;52.068;4.414;2023-04-01T04:04:05;10.68;;;6.70;;
26965;SDS011;14522;52.068;4.414;2023-04-01T04:06:32;13.63;;;5.53;;
26965;SDS011;14522;52.068;4.414;2023-04-01T04:08:58;14.55;;;6.10;;
26965;SDS011;14522;52.068;4.414;2023-04-01T04:11:25;10.48;;;5.55;;
26965;SDS011;14522;52.068;4.414;2023-04-01T04:13:51;15.27;;;6.60;;
26965;SDS011;14522;52.068;4.414;2023-04-01T04:16:19;6.25;;;3.65;;
26965;SDS011;14522;52.068;4.414;2023-04-01T04:18:46;10.25;;;5.85;;
26965;SDS011;14522;52.068;4.414;2023-04-01T04:21:12;13.45;;;5.90;;
26965;SDS011;14522;52.068;4.414;2023-04-01T04:23:40;11.27;;;4.72;;
26965;SDS011;14522;52.068;4.414;2023-04-01T04:26:07;8.25;;;4.03;;
26965;SDS011;14522;52.068;4.414;2023-04-01T04:28:34;13.55;;;5.43;;
26965;SDS011;14522;52.068;4.414;2023-04-01T04:31:00;15.07;;;5.82;;
26965;SDS011;14522;52.068;4.414;2023-04-01T04:33:26;16.90;;;6.25;;
26965;SDS011;14522;52.068;4.414;2023-04-01T04:35:56;12.15;;;4.72;;
26965;SDS011;14522;52.068;4.414;2023-04-01T04:38:26;12.85;;;5.53;;
26965;SDS011;14522;52.068;4.414;2023-04-01T04:40:53;18.80;;;5.82;;
26965;SDS011;14522;52.068;4.414;2023-04-01T04:43:19;20.40;;;6.18;;
26965;SDS011;14522;52.068;4.414;2023-04-01T04:45:46;10.40;;;4.32;;
26965;SDS011;14522;52.068;4.414;2023-04-01T04:48:13;9.40;;;3.88;;
26965;SDS011;14522;52.068;4.414;2023-04-01T04:50:47;15.45;;;6.63;;
26965;SDS011;14522;52.068;4.414;2023-04-01T04:53:15;16.60;;;6.10;;
26965;SDS011;14522;52.068;4.414;2023-04-01T04:55:45;16.42;;;5.70;;
26965;SDS011;14522;52.068;4.414;2023-04-01T04:58:12;13.63;;;5.25;;
26965;SDS011;14522;52.068;4.414;2023-04-01T05:00:38;12.48;;;5.13;;
26965;SDS011;14522;52.068;4.414;2023-04-01T05:03:04;11.15;;;4.10;;
26965;SDS011;14522;52.068;4.414;2023-04-01T05:05:31;15.25;;;4.55;;
26965;SDS011;14522;52.068;4.414;2023-04-01T05:07:58;13.88;;;5.35;;
26965;SDS011;14522;52.068;4.414;2023-04-01T05:10:24;13.00;;;6.68;;
26965;SDS011;14522;52.068;4.414;2023-04-01T05:12:50;10.35;;;3.85;;
26965;SDS011;14522;52.068;4.414;2023-04-01T05:15:17;14.25;;;5.63;;
26965;SDS011;14522;52.068;4.414;2023-04-01T05:17:43;14.63;;;5.65;;
26965;SDS011;14522;52.068;4.414;2023-04-01T05:20:11;13.27;;;5.97;;
26965;SDS011;14522;52.068;4.414;2023-04-01T05:22:38;12.70;;;5.55;;
26965;SDS011;14522;52.068;4.414;2023-04-01T05:25:05;11.75;;;5.43;;
26965;SDS011;14522;52.068;4.414;2023-04-01T05:27:31;11.65;;;5.57;;
26965;SDS011;14522;52.068;4.414;2023-04-01T05:29:58;14.02;;;5.45;;
26965;SDS011;14522;52.068;4.414;2023-04-01T05:32:24;13.85;;;5.20;;
26965;SDS011;14522;52.068;4.414;2023-04-01T05:34:51;10.57;;;4.43;;
26965;SDS011;14522;52.068;4.414;2023-04-01T05:37:18;9.70;;;4.30;;
26965;SDS011;14522;52.068;4.414;2023-04-01T05:39:44;16.75;;;5.53;;
26965;SDS011;14522;52.068;4.414;2023-04-01T05:42:11;9.88;;;4.65;;
26965;SDS011;14522;52.068;4.414;2023-04-01T05:44:37;15.60;;;4.85;;
26965;SDS011;14522;52.068;4.414;2023-04-01T05:47:04;12.90;;;4.50;;
26965;SDS011;14522;52.068;4.414;2023-04-01T05:49:30;11.82;;;4.60;;
26965;SDS011;14522;52.068;4.414;2023-04-01T05:51:57;9.57;;;4.57;;
26965;SDS011;14522;52.068;4.414;2023-04-01T05:54:23;15.75;;;5.45;;
26965;SDS011;14522;52.068;4.414;2023-04-01T05:56:50;12.73;;;4.40;;
26965;SDS011;14522;52.068;4.414;2023-04-01T05:59:16;11.23;;;4.97;;
26965;SDS011;14522;52.068;4.414;2023-04-01T06:01:43;12.90;;;5.90;;
26965;SDS011;14522;52.068;4.414;2023-04-01T06:04:18;8.52;;;4.43;;
26965;SDS011;14522;52.068;4.414;2023-04-01T06:06:45;8.50;;;5.10;;
26965;SDS011;14522;52.068;4.414;2023-04-01T06:09:13;10.10;;;3.78;;
26965;SDS011;14522;52.068;4.414;2023-04-01T06:22:39;11.15;;;3.35;;
26965;SDS011;14522;52.068;4.414;2023-04-01T06:25:11;11.70;;;4.25;;
26965;SDS011;14522;52.068;4.414;2023-04-01T06:30:25;9.65;;;3.83;;
26965;SDS011;14522;52.068;4.414;2023-04-01T06:37:55;11.13;;;3.85;;
26965;SDS011;14522;52.068;4.414;2023-04-01T06:43:21;9.68;;;4.20;;
26965;SDS011;14522;52.068;4.414;2023-04-01T06:51:08;9.35;;;3.90;;
26965;SDS011;14522;52.068;4.414;2023-04-01T06:56:15;7.32;;;3.63;;
26965;SDS011;14522;52.068;4.414;2023-04-01T06:59:02;5.00;;;2.05;;
26965;SDS011;14522;52.068;4.414;2023-04-01T07:01:35;6.40;;;2.42;;
26965;SDS011;14522;52.068;4.414;2023-04-01T07:04:38;4.88;;;2.22;;
26965;SDS011;14522;52.068;4.414;2023-04-01T07:07:02;5.60;;;2.47;;
26965;SDS011;14522;52.068;4.414;2023-04-01T07:09:40;3.65;;;2.00;;
26965;SDS011;14522;52.068;4.414;2023-04-01T07:12:12;2.85;;;1.95;;
26965;SDS011;14522;52.068;4.414;2023-04-01T07:14:41;3.97;;;2.20;;
26965;SDS011;14522;52.068;4.414;2023-04-01T07:17:12;3.53;;;1.55;;
26965;SDS011;14522;52.068;4.414;2023-04-01T07:19:42;4.60;;;2.38;;
26965;SDS011;14522;52.068;4.414;2023-04-01T07:24:37;5.45;;;2.80;;
26965;SDS011;14522;52.068;4.414;2023-04-01T07:27:08;8.32;;;4.03;;
26965;SDS011;14522;52.068;4.414;2023-04-01T07:29:35;8.10;;;2.85;;
26965;SDS011;14522;52.068;4.414;2023-04-01T07:37:07;8.02;;;3.53;;
26965;SDS011;14522;52.068;4.414;2023-04-01T07:44:54;11.65;;;5.13;;
26965;SDS011;14522;52.068;4.414;2023-04-01T07:50:10;7.43;;;3.47;;
26965;SDS011;14522;52.068;4.414;2023-04-01T07:52:42;8.65;;;4.90;;
26965;SDS011;14522;52.068;4.414;2023-04-01T07:55:21;10.35;;;3.80;;
26965;SDS011;14522;52.068;4.414;2023-04-01T07:58:05;6.60;;;3.40;;
26965;SDS011;14522;52.068;4.414;2023-04-01T08:00:37;14.82;;;5.53;;
26965;SDS011;14522;52.068;4.414;2023-04-01T08:08:31;13.45;;;5.38;;
26965;SDS011;14522;52.068;4.414;2023-04-01T08:13:31;11.38;;;5.22;;
26965;SDS011;14522;52.068;4.414;2023-04-01T08:16:12;18.83;;;6.35;;
26965;SDS011;14522;52.068;4.414;2023-04-01T08:21:25;16.48;;;6.80;;
26965;SDS011;14522;52.068;4.414;2023-04-01T08:23:55;17.58;;;6.65;;
26965;SDS011;14522;52.068;4.414;2023-04-01T08:28:57;11.32;;;5.05;;
26965;SDS011;14522;52.068;4.414;2023-04-01T08:31:29;12.15;;;5.00;;
26965;SDS011;14522;52.068;4.414;2023-04-01T08:33:57;20.05;;;6.38;;
26965;SDS011;14522;52.068;4.414;2023-04-01T08:36:37;11.60;;;5.07;;
26965;SDS011;14522;52.068;4.414;2023-04-01T08:46:57;14.82;;;4.60;;
26965;SDS011;14522;52.068;4.414;2023-04-01T08:49:35;8.73;;;4.30;;
26965;SDS011;14522;52.068;4.414;2023-04-01T09:05:11;15.18;;;6.22;;
26965;SDS011;14522;52.068;4.414;2023-04-01T09:08:03;15.40;;;6.03;;
26965;SDS011;14522;52.068;4.414;2023-04-01T09:18:16;14.48;;;6.75;;
26965;SDS011;14522;52.068;4.414;2023-04-01T09:25:58;10.55;;;4.78;;
26965;SDS011;14522;52.068;4.414;2023-04-01T09:44:36;11.77;;;4.40;;
26965;SDS011;14522;52.068;4.414;2023-04-01T10:13:17;14.00;;;6.93;;
26965;SDS011;14522;52.068;4.414;2023-04-01T10:18:47;13.52;;;5.60;;
26965;SDS011;14522;52.068;4.414;2023-04-01T10:21:45;15.60;;;7.53;;
26965;SDS011;14522;52.068;4.414;2023-04-01T10:29:15;13.15;;;6.60;;
26965;SDS011;14522;52.068;4.414;2023-04-01T10:31:54;11.95;;;6.25;;
26965;SDS011;14522;52.068;4.414;2023-04-01T11:06:39;15.82;;;6.50;;
26965;SDS011;14522;52.068;4.414;2023-04-01T11:12:14;14.52;;;6.90;;
26965;SDS011;14522;52.068;4.414;2023-04-01T11:22:16;13.70;;;6.53;;
26965;SDS011;14522;52.068;4.414;2023-04-01T11:24:55;21.20;;;8.68;;
26965;SDS011;14522;52.068;4.414;2023-04-01T11:27:30;16.95;;;7.65;;
26965;SDS011;14522;52.068;4.414;2023-04-01T11:43:17;16.92;;;6.90;;
26965;SDS011;14522;52.068;4.414;2023-04-01T11:46:02;14.52;;;6.55;;
26965;SDS011;14522;52.068;4.414;2023-04-01T12:04:51;11.27;;;6.00;;
26965;SDS011;14522;52.068;4.414;2023-04-01T12:10:31;11.40;;;4.63;;
26965;SDS011;14522;52.068;4.414;2023-04-01T12:13:05;13.52;;;5.32;;
26965;SDS011;14522;52.068;4.414;2023-04-01T12:18:05;13.07;;;4.95;;
26965;SDS011;14522;52.068;4.414;2023-04-01T12:20:43;14.20;;;6.05;;
26965;SDS011;14522;52.068;4.414;2023-04-01T12:29:07;10.65;;;4.65;;
26965;SDS011;14522;52.068;4.414;2023-04-01T12:31:17;12.25;;;5.50;;
26965;SDS011;14522;52.068;4.414;2023-04-01T12:46:16;8.95;;;4.10;;
26965;SDS011;14522;52.068;4.414;2023-04-01T12:51:49;12.38;;;4.72;;
26965;SDS011;14522;52.068;4.414;2023-04-01T12:57:05;14.88;;;5.40;;
26965;SDS011;14522;52.068;4.414;2023-04-01T13:05:01;15.63;;;5.55;;
26965;SDS011;14522;52.068;4.414;2023-04-01T13:07:51;8.00;;;3.47;;
26965;SDS011;14522;52.068;4.414;2023-04-01T13:13:35;12.55;;;4.40;;
26965;SDS011;14522;52.068;4.414;2023-04-01T13:18:13;11.38;;;2.83;;
26965;SDS011;14522;52.068;4.414;2023-04-01T13:20:49;10.45;;;2.95;;
26965;SDS011;14522;52.068;4.414;2023-04-01T13:25:48;9.82;;;3.30;;
26965;SDS011;14522;52.068;4.414;2023-04-01T13:28:34;9.10;;;2.65;;
26965;SDS011;14522;52.068;4.414;2023-04-01T13:34:06;7.70;;;2.10;;
26965;SDS011;14522;52.068;4.414;2023-04-01T13:41:59;7.78;;;1.77;;
26965;SDS011;14522;52.068;4.414;2023-04-01T13:44:37;4.15;;;1.55;;
26965;SDS011;14522;52.068;4.414;2023-04-01T13:55:01;10.77;;;3.05;;
26965;SDS011;14522;52.068;4.414;2023-04-01T13:57:43;13.23;;;3.42;;
26965;SDS011;14522;52.068;4.414;2023-04-01T14:00:25;13.07;;;2.40;;
26965;SDS011;14522;52.068;4.414;2023-04-01T14:05:42;13.10;;;3.58;;
26965;SDS011;14522;52.068;4.414;2023-04-01T14:11:26;10.05;;;2.38;;
26965;SDS011;14522;52.068;4.414;2023-04-01T14:21:40;9.38;;;3.22;;
26965;SDS011;14522;52.068;4.414;2023-04-01T14:24:22;10.95;;;2.38;;
26965;SDS011;14522;52.068;4.414;2023-04-01T14:29:37;10.82;;;2.28;;
26965;SDS011;14522;52.068;4.414;2023-04-01T14:32:16;10.30;;;2.67;;
26965;SDS011;14522;52.068;4.414;2023-04-01T14:45:16;13.40;;;2.60;;
26965;SDS011;14522;52.068;4.414;2023-04-01T14:47:58;17.23;;;3.70;;
26965;SDS011;14522;52.068;4.414;2023-04-01T14:50:30;9.93;;;2.40;;
26965;SDS011;14522;52.068;4.414;2023-04-01T14:55:52;13.27;;;2.73;;
26965;SDS011;14522;52.068;4.414;2023-04-01T14:58:20;12.10;;;2.80;;
26965;SDS011;14522;52.068;4.414;2023-04-01T15:00:49;10.65;;;3.17;;
26965;SDS011;14522;52.068;4.414;2023-04-01T15:13:24;12.32;;;2.42;;
26965;SDS011;14522;52.068;4.414;2023-04-01T15:15:58;12.10;;;2.83;;
26965;SDS011;14522;52.068;4.414;2023-04-01T15:32:13;15.97;;;3.20;;
26965;SDS011;14522;52.068;4.414;2023-04-01T15:34:45;9.77;;;3.00;;
26965;SDS011;14522;52.068;4.414;2023-04-01T15:47:00;11.32;;;2.17;;
26965;SDS011;14522;52.068;4.414;2023-04-01T15:56:54;16.50;;;2.10;;
26965;SDS011;14522;52.068;4.414;2023-04-01T16:01:56;7.20;;;2.05;;
26965;SDS011;14522;52.068;4.414;2023-04-01T16:04:32;13.00;;;2.53;;
26965;SDS011;14522;52.068;4.414;2023-04-01T16:20:19;12.00;;;2.33;;
26965;SDS011;14522;52.068;4.414;2023-04-01T16:22:53;9.73;;;2.42;;
26965;SDS011;14522;52.068;4.414;2023-04-01T16:25:35;13.20;;;2.58;;
26965;SDS011;14522;52.068;4.414;2023-04-01T16:30:47;10.18;;;2.42;;
26965;SDS011;14522;52.068;4.414;2023-04-01T16:33:22;10.48;;;2.30;;
26965;SDS011;14522;52.068;4.414;2023-04-01T16:35:56;15.07;;;2.57;;
26965;SDS011;14522;52.068;4.414;2023-04-01T16:38:36;7.13;;;2.10;;
26965;SDS011;14522;52.068;4.414;2023-04-01T16:41:20;6.50;;;2.00;;
26965;SDS011;14522;52.068;4.414;2023-04-01T16:46:43;3.33;;;1.67;;
26965;SDS011;14522;52.068;4.414;2023-04-01T16:54:14;3.28;;;1.65;;
26965;SDS011;14522;52.068;4.414;2023-04-01T16:57:12;4.50;;;2.63;;
26965;SDS011;14522;52.068;4.414;2023-04-01T16:59:47;4.38;;;2.38;;
26965;SDS011;14522;52.068;4.414;2023-04-01T17:02:14;3.20;;;2.08;;
26965;SDS011;14522;52.068;4.414;2023-04-01T17:13:17;2.92;;;1.95;;
26965;SDS011;14522;52.068;4.414;2023-04-01T17:15:21;7.28;;;2.35;;
26965;SDS011;14522;52.068;4.414;2023-04-01T17:23:12;3.10;;;1.88;;
26965;SDS011;14522;52.068;4.414;2023-04-01T17:26:16;4.85;;;1.85;;
26965;SDS011;14522;52.068;4.414;2023-04-01T17:33:37;4.15;;;2.10;;
26965;SDS011;14522;52.068;4.414;2023-04-01T17:41:09;2.53;;;1.75;;
26965;SDS011;14522;52.068;4.414;2023-04-01T17:59:55;9.43;;;1.85;;
26965;SDS011;14522;52.068;4.414;2023-04-01T18:02:38;3.67;;;1.48;;
26965;SDS011;14522;52.068;4.414;2023-04-01T18:10:16;3.80;;;1.55;;
26965;SDS011;14522;52.068;4.414;2023-04-01T18:15:12;2.35;;;1.65;;
26965;SDS011;14522;52.068;4.414;2023-04-01T18:20:43;3.67;;;1.40;;
26965;SDS011;14522;52.068;4.414;2023-04-01T18:25:41;2.85;;;1.50;;
26965;SDS011;14522;52.068;4.414;2023-04-01T18:30:50;3.17;;;1.40;;
26965;SDS011;14522;52.068;4.414;2023-04-01T18:33:24;3.25;;;1.40;;
26965;SDS011;14522;52.068;4.414;2023-04-01T18:38:37;2.78;;;1.45;;
26965;SDS011;14522;52.068;4.414;2023-04-01T18:41:13;4.22;;;1.60;;
26965;SDS011;14522;52.068;4.414;2023-04-01T18:43:46;1.95;;;1.27;;
26965;SDS011;14522;52.068;4.414;2023-04-01T18:53:59;1.23;;;1.05;;
26965;SDS011;14522;52.068;4.414;2023-04-01T18:56:29;2.72;;;1.13;;
26965;SDS011;14522;52.068;4.414;2023-04-01T18:59:01;2.63;;;1.38;;
26965;SDS011;14522;52.068;4.414;2023-04-01T19:04:30;2.60;;;1.42;;
26965;SDS011;14522;52.068;4.414;2023-04-01T19:06:58;2.15;;;1.10;;
26965;SDS011;14522;52.068;4.414;2023-04-01T19:17:07;1.65;;;1.30;;
26965;SDS011;14522;52.068;4.414;2023-04-01T19:19:51;2.15;;;1.33;;
26965;SDS011;14522;52.068;4.414;2023-04-01T19:25:17;2.70;;;1.37;;
26965;SDS011;14522;52.068;4.414;2023-04-01T19:27:55;6.30;;;1.50;;
26965;SDS011;14522;52.068;4.414;2023-04-01T19:38:14;4.72;;;1.55;;
26965;SDS011;14522;52.068;4.414;2023-04-01T19:43:48;3.15;;;1.70;;
26965;SDS011;14522;52.068;4.414;2023-04-01T19:56:16;2.97;;;2.17;;
26965;SDS011;14522;52.068;4.414;2023-04-01T20:01:11;6.63;;;2.00;;
26965;SDS011;14522;52.068;4.414;2023-04-01T20:11:29;3.60;;;2.20;;
26965;SDS011;14522;52.068;4.414;2023-04-01T20:16:23;7.90;;;2.33;;
26965;SDS011;14522;52.068;4.414;2023-04-01T20:19:01;3.22;;;2.05;;
26965;SDS011;14522;52.068;4.414;2023-04-01T20:24:01;4.13;;;2.78;;
26965;SDS011;14522;52.068;4.414;2023-04-01T20:26:32;5.60;;;3.05;;
26965;SDS011;14522;52.068;4.414;2023-04-01T20:31:27;6.88;;;3.40;;
26965;SDS011;14522;52.068;4.414;2023-04-01T20:34:09;4.82;;;2.58;;
26965;SDS011;14522;52.068;4.414;2023-04-01T20:36:45;3.72;;;2.00;;
26965;SDS011;14522;52.068;4.414;2023-04-01T20:47:19;3.63;;;2.47;;
26965;SDS011;14522;52.068;4.414;2023-04-01T20:52:40;4.72;;;2.65;;
26965;SDS011;14522;52.068;4.414;2023-04-01T20:55:31;3.17;;;2.05;;
26965;SDS011;14522;52.068;4.414;2023-04-01T21:00:52;4.20;;;2.40;;
26965;SDS011;14522;52.068;4.414;2023-04-01T21:03:40;3.25;;;2.55;;
26965;SDS011;14522;52.068;4.414;2023-04-01T21:09:00;8.23;;;3.95;;
26965;SDS011;14522;52.068;4.414;2023-04-01T21:11:45;6.82;;;3.75;;
26965;SDS011;14522;52.068;4.414;2023-04-01T21:16:53;6.85;;;3.35;;
26965;SDS011;14522;52.068;4.414;2023-04-01T21:27:26;3.72;;;2.33;;
26965;SDS011;14522;52.068;4.414;2023-04-01T21:30:12;7.00;;;3.15;;
26965;SDS011;14522;52.068;4.414;2023-04-01T21:35:23;6.15;;;3.45;;
26965;SDS011;14522;52.068;4.414;2023-04-01T21:37:58;7.95;;;3.88;;
26965;SDS011;14522;52.068;4.414;2023-04-01T22:01:22;4.50;;;2.00;;
26965;SDS011;14522;52.068;4.414;2023-04-01T22:06:24;3.95;;;1.98;;
26965;SDS011;14522;52.068;4.414;2023-04-01T22:09:16;2.88;;;2.03;;
26965;SDS011;14522;52.068;4.414;2023-04-01T22:12:20;3.50;;;2.30;;
26965;SDS011;14522;52.068;4.414;2023-04-01T22:14:43;3.50;;;2.40;;
26965;SDS011;14522;52.068;4.414;2023-04-01T22:17:15;4.07;;;2.50;;
26965;SDS011;14522;52.068;4.414;2023-04-01T22:27:21;2.72;;;1.90;;
26965;SDS011;14522;52.068;4.414;2023-04-01T22:30:16;3.63;;;2.13;;
26965;SDS011;14522;52.068;4.414;2023-04-01T22:35:10;6.03;;;2.20;;
26965;SDS011;14522;52.068;4.414;2023-04-01T22:37:51;3.53;;;2.03;;
26965;SDS011;14522;52.068;4.414;2023-04-01T22:40:29;5.07;;;2.63;;
26965;SDS011;14522;52.068;4.414;2023-04-01T22:50:38;5.55;;;2.90;;
26965;SDS011;14522;52.068;4.414;2023-04-01T22:55:53;3.13;;;2.15;;
26965;SDS011;14522;52.068;4.414;2023-04-01T22:58:28;6.45;;;3.47;;
26965;SDS011;14522;52.068;4.414;2023-04-01T23:00:59;4.43;;;3.17;;
26965;SDS011;14522;52.068;4.414;2023-04-01T23:05:57;6.32;;;3.95;;
26965;SDS011;14522;52.068;4.414;2023-04-01T23:11:01;9.95;;;4.45;;
26965;SDS011;14522;52.068;4.414;2023-04-01T23:13:34;7.32;;;3.63;;
26965;SDS011;14522;52.068;4.414;2023-04-01T23:16:01;4.78;;;2.92;;
26965;SDS011;14522;52.068;4.414;2023-04-01T23:18:30;8.27;;;3.72;;
26965;SDS011;14522;52.068;4.414;2023-04-01T23:21:15;5.32;;;3.05;;
26965;SDS011;14522;52.068;4.414;2023-04-01T23:28:53;9.15;;;4.93;;
26965;SDS011;14522;52.068;4.414;2023-04-01T23:31:30;7.47;;;3.75;;
26965;SDS011;14522;52.068;4.414;2023-04-01T23:34:14;8.48;;;3.70;;
26965;SDS011;14522;52.068;4.414;2023-04-01T23:36:46;9.23;;;4.57;;
26965;SDS011;14522;52.068;4.414;2023-04-01T23:39:21;10.00;;;4.47;;
26965;SDS011;14522;52.068;4.414;2023-04-01T23:41:48;11.13;;;4.38;;
26965;SDS011;14522;52.068;4.414;2023-04-01T23:44:16;10.57;;;4.85;;
26965;SDS011;14522;52.068;4.414;2023-04-01T23:46:44;9.50;;;4.82;;
26965;SDS011;14522;52.068;4.414;2023-04-01T23:49:13;7.60;;;3.92;;
26965;SDS011;14522;52.068;4.414;2023-04-01T23:51:46;7.95;;;3.75;;
26965;SDS011;14522;52.068;4.414;2023-04-01T23:56:52;12.30;;;4.72;;
26965;SDS011;14522;52.068;4.414;2023-04-01T23:59:24;7.43;;;3.78;;
